Marion, KS (66861)

6:16 AM CST on December 11, 2016 (GMT -0600)
Marion | | Change Station

Elev 1371 ft 38.35 °N, 97.01 °W | Updated 37 seconds ago

Overcast
Overcast
45.9 °F
Feels Like 46 °F
N
1.0
Wind Variable Wind from South

Today
High -- | Low -- °F
--% Chance of Precip.
Yesterday
High -- | Low -- °F
Precip. -- in
Pressure 29.69 in
Visibility 10.0 miles
Clouds Overcast 1100 ft
Windchill 46 °F
Dew Point 42 °F
Humidity 86%
Rainfall 0.00 in
Snow Depth Not available.
7:35 AM 5:07 PM
Waxing Gibbous, 91% visible
METAR KEWK 111156Z AUTO 20014KT 10SM OVC011 08/07 A2968 RMK AO2 SLP053 T00830067 10083 20028 55009
Pressure 29.69 in
Visibility 10.0 miles
Clouds Overcast 1100 ft
Windchill 46 °F
Dew Point 42 °F
Humidity 86%
Rainfall 0.00 in
Snow Depth Not available.
7:35 AM 5:07 PM
Waxing Gibbous, 91% visible
METAR KEWK 111156Z AUTO 20014KT 10SM OVC011 08/07 A2968 RMK AO2 SLP053 T00830067 10083 20028 55009

10-Day Weather Forecast

Almanac

Astronomy

Dec. 11, 2016 Rise Set
Actual Time
Civil Twilight
Nautical Twilight
Astronomical Twilight
Moon
Length of Visible Light
Length of Day
Tomorrow will be .
, % of the Moon is Illuminated

Today's Extremes

State Highs State Lows

Community

WunderPhotos

Upload Photos

1,956,710 photos uploaded!

WunderBlog® & News

Nearby

Air Quality

  Air Quality AQ Index Pollutant
Not available.

Snow Depth

Station Depth Elevation

Earthquake Activity

City Distance Mag. Time & Date
Minimum magnitude displayed is 2.5.

Coastal Water Temperatures

Place Temperature

Stations

Nearby Weather Stations

Station Location Temp. Windchill Dew Point Humidity Wind Precip. Elev Updated Type
                   

Watches & Warnings

There are currently no watches in effect.